sensor_id;sensor_type;location;lat;lon;timestamp;pressure;altitude;pressure_sealevel;temperature;humidity
16255;BME280;8235;52.198;9.904;2022-09-16T00:00:58;99969.50;;;12.60;81.07
16255;BME280;8235;52.198;9.904;2022-09-16T00:03:25;99972.28;;;12.58;81.32
16255;BME280;8235;52.198;9.904;2022-09-16T00:05:52;99977.88;;;12.55;81.14
16255;BME280;8235;52.198;9.904;2022-09-16T00:08:20;99962.13;;;12.52;81.03
16255;BME280;8235;52.198;9.904;2022-09-16T00:10:47;99964.22;;;12.48;81.21
16255;BME280;8235;52.198;9.904;2022-09-16T00:13:14;99969.66;;;12.47;80.69
16255;BME280;8235;52.198;9.904;2022-09-16T00:15:42;99967.13;;;12.45;81.32
16255;BME280;8235;52.198;9.904;2022-09-16T00:18:09;99963.72;;;12.43;81.39
16255;BME280;8235;52.198;9.904;2022-09-16T00:20:41;99972.72;;;12.42;81.37
16255;BME280;8235;52.198;9.904;2022-09-16T00:23:07;99969.31;;;12.40;81.37
16255;BME280;8235;52.198;9.904;2022-09-16T00:25:34;99974.78;;;12.39;81.53
16255;BME280;8235;52.198;9.904;2022-09-16T00:28:01;99974.03;;;12.37;81.89
16255;BME280;8235;52.198;9.904;2022-09-16T00:30:27;99969.72;;;12.36;81.98
16255;BME280;8235;52.198;9.904;2022-09-16T00:32:55;99968.97;;;12.34;81.94
16255;BME280;8235;52.198;9.904;2022-09-16T00:35:21;99975.28;;;12.33;82.02
16255;BME280;8235;52.198;9.904;2022-09-16T00:37:48;99978.94;;;12.32;82.40
16255;BME280;8235;52.198;9.904;2022-09-16T00:40:14;99972.88;;;12.30;82.56
16255;BME280;8235;52.198;9.904;2022-09-16T00:42:41;99966.69;;;12.29;82.46
16255;BME280;8235;52.198;9.904;2022-09-16T00:45:13;99969.59;;;12.26;82.55
16255;BME280;8235;52.198;9.904;2022-09-16T00:47:44;99977.72;;;12.25;82.79
16255;BME280;8235;52.198;9.904;2022-09-16T00:50:17;99968.00;;;12.24;83.11
16255;BME280;8235;52.198;9.904;2022-09-16T00:52:44;99975.28;;;12.22;82.80
16255;BME280;8235;52.198;9.904;2022-09-16T00:55:16;99972.75;;;12.20;82.91
16255;BME280;8235;52.198;9.904;2022-09-16T00:57:45;99981.88;;;12.18;83.27
16255;BME280;8235;52.198;9.904;2022-09-16T01:00:12;99975.81;;;12.15;83.23
16255;BME280;8235;52.198;9.904;2022-09-16T01:02:40;99966.97;;;12.15;83.15
16255;BME280;8235;52.198;9.904;2022-09-16T01:05:09;99965.25;;;12.14;83.40
16255;BME280;8235;52.198;9.904;2022-09-16T01:07:42;99974.22;;;12.13;83.25
16255;BME280;8235;52.198;9.904;2022-09-16T01:10:09;99963.81;;;12.10;82.95
16255;BME280;8235;52.198;9.904;2022-09-16T01:12:37;99965.75;;;12.08;83.37
16255;BME280;8235;52.198;9.904;2022-09-16T01:15:05;99966.81;;;12.05;83.37
16255;BME280;8235;52.198;9.904;2022-09-16T01:17:45;99970.59;;;12.03;82.87
16255;BME280;8235;52.198;9.904;2022-09-16T01:20:42;99979.56;;;12.02;83.25
16255;BME280;8235;52.198;9.904;2022-09-16T01:23:35;99972.69;;;11.99;83.36
16255;BME280;8235;52.198;9.904;2022-09-16T01:26:23;99970.13;;;11.98;83.28
16255;BME280;8235;52.198;9.904;2022-09-16T01:29:34;99971.34;;;11.94;83.38
16255;BME280;8235;52.198;9.904;2022-09-16T01:32:06;99967.94;;;11.92;83.74
16255;BME280;8235;52.198;9.904;2022-09-16T01:34:40;99974.25;;;11.91;83.79
16255;BME280;8235;52.198;9.904;2022-09-16T01:37:15;99967.22;;;11.90;83.90
16255;BME280;8235;52.198;9.904;2022-09-16T01:39:52;99970.97;;;11.87;84.12
16255;BME280;8235;52.198;9.904;2022-09-16T01:42:32;99974.47;;;11.88;84.02
16255;BME280;8235;52.198;9.904;2022-09-16T01:45:05;99975.44;;;11.87;84.17
16255;BME280;8235;52.198;9.904;2022-09-16T01:47:38;99965.63;;;11.87;84.15
16255;BME280;8235;52.198;9.904;2022-09-16T01:50:16;99975.34;;;11.88;84.42
16255;BME280;8235;52.198;9.904;2022-09-16T01:52:57;99970.72;;;11.90;84.59
16255;BME280;8235;52.198;9.904;2022-09-16T01:55:30;99965.41;;;11.90;84.60
16255;BME280;8235;52.198;9.904;2022-09-16T01:58:02;99977.75;;;11.91;84.95
16255;BME280;8235;52.198;9.904;2022-09-16T02:00:29;99980.31;;;11.93;84.63
16255;BME280;8235;52.198;9.904;2022-09-16T02:03:00;99978.50;;;11.93;84.90
16255;BME280;8235;52.198;9.904;2022-09-16T02:05:32;99981.16;;;11.93;84.81
16255;BME280;8235;52.198;9.904;2022-09-16T02:08:01;99966.84;;;11.94;84.82
16255;BME280;8235;52.198;9.904;2022-09-16T02:10:31;99969.41;;;11.96;84.55
16255;BME280;8235;52.198;9.904;2022-09-16T02:13:02;99965.75;;;11.97;84.72
16255;BME280;8235;52.198;9.904;2022-09-16T02:15:32;99964.91;;;11.96;84.65
16255;BME280;8235;52.198;9.904;2022-09-16T02:18:03;99964.91;;;11.96;84.59
16255;BME280;8235;52.198;9.904;2022-09-16T02:20:31;99962.25;;;11.96;84.53
16255;BME280;8235;52.198;9.904;2022-09-16T02:23:05;99962.25;;;11.96;84.51
16255;BME280;8235;52.198;9.904;2022-09-16T02:25:37;99959.56;;;11.96;84.60
16255;BME280;8235;52.198;9.904;2022-09-16T02:28:08;99948.91;;;11.96;84.71
16255;BME280;8235;52.198;9.904;2022-09-16T02:30:39;99956.19;;;11.94;84.44
16255;BME280;8235;52.198;9.904;2022-09-16T02:33:11;99963.22;;;11.95;84.59
16255;BME280;8235;52.198;9.904;2022-09-16T02:35:43;99953.38;;;11.96;84.59
16255;BME280;8235;52.198;9.904;2022-09-16T02:38:15;99962.25;;;11.96;84.59
16255;BME280;8235;52.198;9.904;2022-09-16T02:40:46;99956.06;;;11.96;84.69
16255;BME280;8235;52.198;9.904;2022-09-16T02:43:14;99955.09;;;11.97;84.47
16255;BME280;8235;52.198;9.904;2022-09-16T02:45:46;99959.56;;;11.96;84.68
16255;BME280;8235;52.198;9.904;2022-09-16T02:48:21;99958.72;;;11.96;84.30
16255;BME280;8235;52.198;9.904;2022-09-16T02:51:00;99953.38;;;11.96;84.26
16255;BME280;8235;52.198;9.904;2022-09-16T02:53:34;99953.50;;;11.94;84.49
16255;BME280;8235;52.198;9.904;2022-09-16T02:56:08;99947.44;;;11.92;84.32
16255;BME280;8235;52.198;9.904;2022-09-16T02:58:37;99944.03;;;11.90;84.54
16255;BME280;8235;52.198;9.904;2022-09-16T03:01:03;99950.22;;;11.91;84.51
16255;BME280;8235;52.198;9.904;2022-09-16T03:03:31;99948.66;;;11.88;84.61
16255;BME280;8235;52.198;9.904;2022-09-16T03:06:17;99947.81;;;11.88;84.29
16255;BME280;8235;52.198;9.904;2022-09-16T03:08:44;99947.06;;;11.86;84.68
16255;BME280;8235;52.198;9.904;2022-09-16T03:11:24;99948.03;;;11.85;84.64
16255;BME280;8235;52.198;9.904;2022-09-16T03:14:03;99949.00;;;11.83;84.46
16255;BME280;8235;52.198;9.904;2022-09-16T03:16:35;99950.81;;;11.83;84.56
16255;BME280;8235;52.198;9.904;2022-09-16T03:19:14;99947.31;;;11.82;84.74
16255;BME280;8235;52.198;9.904;2022-09-16T03:21:52;99955.47;;;11.81;84.65
16255;BME280;8235;52.198;9.904;2022-09-16T03:24:27;99948.44;;;11.80;84.98
16255;BME280;8235;52.198;9.904;2022-09-16T03:27:00;99958.25;;;11.79;85.17
16255;BME280;8235;52.198;9.904;2022-09-16T03:29:33;99953.88;;;11.78;85.17
16255;BME280;8235;52.198;9.904;2022-09-16T03:32:08;99958.13;;;11.81;85.16
16255;BME280;8235;52.198;9.904;2022-09-16T03:34:43;99963.47;;;11.81;85.33
16255;BME280;8235;52.198;9.904;2022-09-16T03:37:12;99953.66;;;11.81;85.24
16255;BME280;8235;52.198;9.904;2022-09-16T03:39:40;99960.53;;;11.84;85.65
16255;BME280;8235;52.198;9.904;2022-09-16T03:42:08;99951.56;;;11.85;85.65
16255;BME280;8235;52.198;9.904;2022-09-16T03:44:37;99947.91;;;11.86;85.65
16255;BME280;8235;52.198;9.904;2022-09-16T03:47:05;99954.97;;;11.87;85.54
16255;BME280;8235;52.198;9.904;2022-09-16T03:49:32;99938.94;;;11.87;85.67
16255;BME280;8235;52.198;9.904;2022-09-16T03:52:00;99948.78;;;11.87;85.65
16255;BME280;8235;52.198;9.904;2022-09-16T03:54:28;99940.78;;;11.87;85.65
16255;BME280;8235;52.198;9.904;2022-09-16T03:56:55;99930.81;;;11.89;85.58
16255;BME280;8235;52.198;9.904;2022-09-16T03:59:22;99941.50;;;11.89;85.69
16255;BME280;8235;52.198;9.904;2022-09-16T04:01:48;99932.66;;;11.88;85.46
16255;BME280;8235;52.198;9.904;2022-09-16T04:04:15;99937.84;;;11.90;85.66
16255;BME280;8235;52.198;9.904;2022-09-16T04:06:42;99937.84;;;11.90;85.35
16255;BME280;8235;52.198;9.904;2022-09-16T04:09:13;99940.41;;;11.91;85.65
16255;BME280;8235;52.198;9.904;2022-09-16T04:12:03;99937.75;;;11.91;85.43
16255;BME280;8235;52.198;9.904;2022-09-16T04:14:32;99937.75;;;11.91;85.35
16255;BME280;8235;52.198;9.904;2022-09-16T04:16:59;99933.25;;;11.92;85.34
16255;BME280;8235;52.198;9.904;2022-09-16T04:19:25;99934.22;;;11.91;85.56
16255;BME280;8235;52.198;9.904;2022-09-16T04:21:52;99931.56;;;11.91;85.46
16255;BME280;8235;52.198;9.904;2022-09-16T04:24:20;99936.78;;;11.92;85.77
16255;BME280;8235;52.198;9.904;2022-09-16T04:26:46;99939.56;;;11.91;85.62
16255;BME280;8235;52.198;9.904;2022-09-16T04:29:13;99935.91;;;11.92;85.47
16255;BME280;8235;52.198;9.904;2022-09-16T04:31:40;99932.28;;;11.93;85.28
16255;BME280;8235;52.198;9.904;2022-09-16T04:34:06;99927.78;;;11.93;85.43
16255;BME280;8235;52.198;9.904;2022-09-16T04:36:32;99922.47;;;11.93;85.67
16255;BME280;8235;52.198;9.904;2022-09-16T04:38:59;99931.31;;;11.94;85.61
16255;BME280;8235;52.198;9.904;2022-09-16T04:41:27;99925.00;;;11.95;85.62
16255;BME280;8235;52.198;9.904;2022-09-16T04:43:55;99930.34;;;11.95;85.40
16255;BME280;8235;52.198;9.904;2022-09-16T04:46:22;99925.97;;;11.94;85.47
16255;BME280;8235;52.198;9.904;2022-09-16T04:48:50;99930.34;;;11.95;85.10
16255;BME280;8235;52.198;9.904;2022-09-16T04:51:17;99931.19;;;11.95;85.37
16255;BME280;8235;52.198;9.904;2022-09-16T04:53:45;99931.19;;;11.95;85.26
16255;BME280;8235;52.198;9.904;2022-09-16T04:56:14;99923.06;;;11.97;85.15
16255;BME280;8235;52.198;9.904;2022-09-16T04:58:43;99932.03;;;11.96;85.08
16255;BME280;8235;52.198;9.904;2022-09-16T05:01:11;99922.22;;;11.96;85.36
16255;BME280;8235;52.198;9.904;2022-09-16T05:03:39;99924.88;;;11.96;85.18
16255;BME280;8235;52.198;9.904;2022-09-16T05:06:08;99924.88;;;11.96;85.21
16255;BME280;8235;52.198;9.904;2022-09-16T05:08:35;99923.19;;;11.95;85.06
16255;BME280;8235;52.198;9.904;2022-09-16T05:11:03;99931.19;;;11.95;85.34
16255;BME280;8235;52.198;9.904;2022-09-16T05:13:30;99926.81;;;11.94;85.54
16255;BME280;8235;52.198;9.904;2022-09-16T05:16:02;99935.69;;;11.95;85.28
16255;BME280;8235;52.198;9.904;2022-09-16T05:18:29;99924.16;;;11.94;85.45
16255;BME280;8235;52.198;9.904;2022-09-16T05:20:56;99932.03;;;11.96;85.44
16255;BME280;8235;52.198;9.904;2022-09-16T05:23:24;99934.72;;;11.96;85.16
16255;BME280;8235;52.198;9.904;2022-09-16T05:25:51;99932.78;;;11.98;85.28
16255;BME280;8235;52.198;9.904;2022-09-16T05:28:18;99931.81;;;11.99;85.16
16255;BME280;8235;52.198;9.904;2022-09-16T05:30:44;99926.31;;;12.00;85.43
16255;BME280;8235;52.198;9.904;2022-09-16T05:33:12;99932.66;;;11.99;85.22
16255;BME280;8235;52.198;9.904;2022-09-16T05:35:39;99934.19;;;12.02;85.30
16255;BME280;8235;52.198;9.904;2022-09-16T05:38:06;99933.09;;;12.04;85.03
16255;BME280;8235;52.198;9.904;2022-09-16T05:40:32;99924.25;;;12.04;85.38
16255;BME280;8235;52.198;9.904;2022-09-16T05:42:59;99930.31;;;12.06;85.26
16255;BME280;8235;52.198;9.904;2022-09-16T05:45:26;99932.75;;;12.09;85.23
16255;BME280;8235;52.198;9.904;2022-09-16T05:47:52;99935.41;;;12.09;84.87
16255;BME280;8235;52.198;9.904;2022-09-16T05:50:20;99934.44;;;12.10;84.86
16255;BME280;8235;52.198;9.904;2022-09-16T05:52:46;99931.66;;;12.11;84.76
16255;BME280;8235;52.198;9.904;2022-09-16T05:55:13;99935.91;;;12.14;84.75
16255;BME280;8235;52.198;9.904;2022-09-16T05:57:39;99937.59;;;12.15;84.63
16255;BME280;8235;52.198;9.904;2022-09-16T06:00:07;99940.13;;;12.16;84.83
16255;BME280;8235;52.198;9.904;2022-09-16T06:02:34;99937.47;;;12.16;84.88
16255;BME280;8235;52.198;9.904;2022-09-16T06:05:00;99951.38;;;12.20;84.77
16255;BME280;8235;52.198;9.904;2022-09-16T06:07:28;99951.16;;;12.23;84.64
16255;BME280;8235;52.198;9.904;2022-09-16T06:09:55;99944.72;;;12.26;84.91
16255;BME280;8235;52.198;9.904;2022-09-16T06:12:21;99948.97;;;12.28;84.61
16255;BME280;8235;52.198;9.904;2022-09-16T06:14:48;99939.00;;;12.30;84.39
16255;BME280;8235;52.198;9.904;2022-09-16T06:17:14;99938.88;;;12.32;84.24
16255;BME280;8235;52.198;9.904;2022-09-16T06:19:42;99937.78;;;12.34;84.34
16255;BME280;8235;52.198;9.904;2022-09-16T06:22:08;99933.31;;;12.35;84.28
16255;BME280;8235;52.198;9.904;2022-09-16T06:24:36;99949.03;;;12.38;84.19
16255;BME280;8235;52.198;9.904;2022-09-16T06:27:03;99943.47;;;12.41;84.10
16255;BME280;8235;52.198;9.904;2022-09-16T06:29:29;99939.81;;;12.42;83.94
16255;BME280;8235;52.198;9.904;2022-09-16T06:31:56;99953.91;;;12.44;83.67
16255;BME280;8235;52.198;9.904;2022-09-16T06:34:23;99946.47;;;12.47;83.33
16255;BME280;8235;52.198;9.904;2022-09-16T06:36:50;99941.03;;;12.49;83.13
16255;BME280;8235;52.198;9.904;2022-09-16T06:39:17;99944.41;;;12.51;83.31
16255;BME280;8235;52.198;9.904;2022-09-16T06:41:45;99937.97;;;12.54;82.78
16255;BME280;8235;52.198;9.904;2022-09-16T06:44:11;99936.97;;;12.55;82.61
16255;BME280;8235;52.198;9.904;2022-09-16T06:46:38;99934.91;;;12.58;82.31
16255;BME280;8235;52.198;9.904;2022-09-16T06:49:06;99920.19;;;12.64;82.20
16255;BME280;8235;52.198;9.904;2022-09-16T06:51:35;99923.34;;;12.69;82.19
16255;BME280;8235;52.198;9.904;2022-09-16T06:54:05;99932.53;;;12.76;82.02
16255;BME280;8235;52.198;9.904;2022-09-16T06:56:33;99932.88;;;12.82;81.41
16255;BME280;8235;52.198;9.904;2022-09-16T06:59:02;99926.72;;;12.92;80.98
16255;BME280;8235;52.198;9.904;2022-09-16T07:01:29;99930.47;;;13.00;80.51
16255;BME280;8235;52.198;9.904;2022-09-16T07:03:57;99932.22;;;13.11;79.97
16255;BME280;8235;52.198;9.904;2022-09-16T07:06:28;99930.63;;;13.19;79.15
16255;BME280;8235;52.198;9.904;2022-09-16T07:08:55;99922.78;;;13.28;78.56
16255;BME280;8235;52.198;9.904;2022-09-16T07:11:22;99923.97;;;13.35;77.89
16255;BME280;8235;52.198;9.904;2022-09-16T07:13:49;99930.47;;;13.42;77.21
16255;BME280;8235;52.198;9.904;2022-09-16T07:16:20;99931.03;;;13.45;76.18
16255;BME280;8235;52.198;9.904;2022-09-16T07:18:47;99927.97;;;13.50;76.05
16255;BME280;8235;52.198;9.904;2022-09-16T07:21:16;99926.16;;;13.50;75.57
16255;BME280;8235;52.198;9.904;2022-09-16T07:23:43;99927.00;;;13.51;74.80
16255;BME280;8235;52.198;9.904;2022-09-16T07:26:13;99935.88;;;13.51;74.41
16255;BME280;8235;52.198;9.904;2022-09-16T07:28:42;99937.44;;;13.54;74.33
16255;BME280;8235;52.198;9.904;2022-09-16T07:31:12;99927.06;;;13.61;74.46
16255;BME280;8235;52.198;9.904;2022-09-16T07:33:42;99928.06;;;13.69;73.73
16255;BME280;8235;52.198;9.904;2022-09-16T07:36:11;99936.84;;;13.81;73.87
16255;BME280;8235;52.198;9.904;2022-09-16T07:38:39;99927.88;;;13.92;72.99
16255;BME280;8235;52.198;9.904;2022-09-16T07:41:06;99936.91;;;14.00;72.59
16255;BME280;8235;52.198;9.904;2022-09-16T07:43:35;99938.91;;;14.08;72.01
16255;BME280;8235;52.198;9.904;2022-09-16T07:46:02;99939.06;;;14.16;71.76
16255;BME280;8235;52.198;9.904;2022-09-16T07:48:30;99940.22;;;14.23;70.96
16255;BME280;8235;52.198;9.904;2022-09-16T07:51:01;99935.16;;;14.30;70.38
16255;BME280;8235;52.198;9.904;2022-09-16T07:53:29;99946.72;;;14.40;70.69
16255;BME280;8235;52.198;9.904;2022-09-16T07:55:59;99938.75;;;14.49;69.84
16255;BME280;8235;52.198;9.904;2022-09-16T07:58:26;99937.78;;;14.60;69.42
16255;BME280;8235;52.198;9.904;2022-09-16T08:00:52;99935.53;;;14.65;68.96
16255;BME280;8235;52.198;9.904;2022-09-16T08:03:19;99941.16;;;14.72;68.54
16255;BME280;8235;52.198;9.904;2022-09-16T08:05:45;99943.13;;;14.79;68.45
16255;BME280;8235;52.198;9.904;2022-09-16T08:08:13;99937.91;;;14.87;67.36
16255;BME280;8235;52.198;9.904;2022-09-16T08:10:40;99945.53;;;14.92;66.70
16255;BME280;8235;52.198;9.904;2022-09-16T08:13:07;99927.88;;;14.99;66.82
16255;BME280;8235;52.198;9.904;2022-09-16T08:15:33;99939.44;;;15.09;66.48
16255;BME280;8235;52.198;9.904;2022-09-16T08:18:00;99945.78;;;15.18;66.21
16255;BME280;8235;52.198;9.904;2022-09-16T08:20:27;99948.31;;;15.29;65.71
16255;BME280;8235;52.198;9.904;2022-09-16T08:22:53;99945.63;;;15.39;64.79
16255;BME280;8235;52.198;9.904;2022-09-16T08:25:21;99946.84;;;15.44;64.15
16255;BME280;8235;52.198;9.904;2022-09-16T08:27:47;99940.06;;;15.50;63.96
16255;BME280;8235;52.198;9.904;2022-09-16T08:30:14;99941.22;;;15.57;63.32
16255;BME280;8235;52.198;9.904;2022-09-16T08:32:40;99941.16;;;15.67;63.43
16255;BME280;8235;52.198;9.904;2022-09-16T08:35:07;99943.66;;;15.78;62.91
16255;BME280;8235;52.198;9.904;2022-09-16T08:37:34;99944.47;;;15.88;62.43
16255;BME280;8235;52.198;9.904;2022-09-16T08:40:01;99933.16;;;15.94;61.71
16255;BME280;8235;52.198;9.904;2022-09-16T08:42:34;99932.25;;;16.03;61.59
16255;BME280;8235;52.198;9.904;2022-09-16T08:45:19;99940.41;;;16.11;61.50
16255;BME280;8235;52.198;9.904;2022-09-16T08:50:46;99931.56;;;16.28;60.29
16255;BME280;8235;52.198;9.904;2022-09-16T08:53:21;99933.47;;;16.36;59.85
16255;BME280;8235;52.198;9.904;2022-09-16T08:55:51;99944.47;;;16.43;58.94
16255;BME280;8235;52.198;9.904;2022-09-16T08:58:20;99932.78;;;16.52;58.80
16255;BME280;8235;52.198;9.904;2022-09-16T09:00:52;99940.09;;;16.59;57.74
16255;BME280;8235;52.198;9.904;2022-09-16T09:03:30;99941.78;;;16.60;56.74
16255;BME280;8235;52.198;9.904;2022-09-16T09:06:02;99937.84;;;16.64;56.31
16255;BME280;8235;52.198;9.904;2022-09-16T09:08:37;99940.28;;;16.76;56.15
16255;BME280;8235;52.198;9.904;2022-09-16T09:11:09;99941.03;;;16.86;55.78
16255;BME280;8235;52.198;9.904;2022-09-16T09:13:54;99934.91;;;16.93;55.26
16255;BME280;8235;52.198;9.904;2022-09-16T09:16:33;99933.94;;;17.02;55.12
16255;BME280;8235;52.198;9.904;2022-09-16T09:19:11;99941.94;;;17.12;54.85
16255;BME280;8235;52.198;9.904;2022-09-16T09:21:46;99943.53;;;17.23;54.34
16255;BME280;8235;52.198;9.904;2022-09-16T09:24:29;99938.91;;;17.33;54.02
16255;BME280;8235;52.198;9.904;2022-09-16T09:27:02;99931.03;;;17.40;53.34
16255;BME280;8235;52.198;9.904;2022-09-16T09:29:58;99933.09;;;17.46;53.38
16255;BME280;8235;52.198;9.904;2022-09-16T09:32:39;99939.56;;;17.53;53.05
16255;BME280;8235;52.198;9.904;2022-09-16T09:35:20;99939.44;;;17.62;52.65
16255;BME280;8235;52.198;9.904;2022-09-16T09:37:57;99937.69;;;17.71;52.26
16255;BME280;8235;52.198;9.904;2022-09-16T09:40:34;99935.66;;;17.73;51.09
16255;BME280;8235;52.198;9.904;2022-09-16T09:43:08;99937.31;;;17.66;50.68
16255;BME280;8235;52.198;9.904;2022-09-16T09:45:43;99930.81;;;17.59;50.46
16255;BME280;8235;52.198;9.904;2022-09-16T09:48:17;99916.66;;;17.57;50.29
16255;BME280;8235;52.198;9.904;2022-09-16T09:50:46;99921.91;;;17.58;49.99
16255;BME280;8235;52.198;9.904;2022-09-16T09:53:18;99920.03;;;17.51;49.65
16255;BME280;8235;52.198;9.904;2022-09-16T09:55:46;99918.94;;;17.44;49.40
16255;BME280;8235;52.198;9.904;2022-09-16T09:58:22;99909.03;;;17.44;49.74
16255;BME280;8235;52.198;9.904;2022-09-16T10:00:53;99908.94;;;17.54;50.27
16255;BME280;8235;52.198;9.904;2022-09-16T10:03:22;99909.69;;;17.64;49.81
16255;BME280;8235;52.198;9.904;2022-09-16T10:05:49;99904.34;;;17.72;49.21
16255;BME280;8235;52.198;9.904;2022-09-16T10:08:24;99902.69;;;17.79;49.07
16255;BME280;8235;52.198;9.904;2022-09-16T10:10:54;99893.28;;;17.83;47.84
16255;BME280;8235;52.198;9.904;2022-09-16T10:13:22;99902.84;;;17.78;47.31
16255;BME280;8235;52.198;9.904;2022-09-16T10:16:04;99902.44;;;17.64;47.71
16255;BME280;8235;52.198;9.904;2022-09-16T10:18:32;99905.06;;;17.56;48.63
16255;BME280;8235;52.198;9.904;2022-09-16T10:21:02;99905.59;;;17.60;49.27
16255;BME280;8235;52.198;9.904;2022-09-16T10:23:30;99908.81;;;17.63;48.92
16255;BME280;8235;52.198;9.904;2022-09-16T10:26:05;99905.75;;;17.58;48.20
16255;BME280;8235;52.198;9.904;2022-09-16T10:28:33;99898.16;;;17.54;48.10
16255;BME280;8235;52.198;9.904;2022-09-16T10:31:01;99889.25;;;17.53;48.31
16255;BME280;8235;52.198;9.904;2022-09-16T10:33:29;99893.28;;;17.57;48.83
16255;BME280;8235;52.198;9.904;2022-09-16T10:36:01;99887.81;;;17.67;48.72
16255;BME280;8235;52.198;9.904;2022-09-16T10:38:35;99888.00;;;17.74;48.09
16255;BME280;8235;52.198;9.904;2022-09-16T10:41:06;99899.84;;;17.81;48.10
16255;BME280;8235;52.198;9.904;2022-09-16T10:43:36;99887.06;;;17.83;47.56
16255;BME280;8235;52.198;9.904;2022-09-16T10:46:05;99891.81;;;17.89;47.99
16255;BME280;8235;52.198;9.904;2022-09-16T10:48:33;99883.72;;;17.97;48.01
16255;BME280;8235;52.198;9.904;2022-09-16T10:51:02;99884.25;;;18.00;47.48
16255;BME280;8235;52.198;9.904;2022-09-16T10:53:31;99890.00;;;18.06;47.53
16255;BME280;8235;52.198;9.904;2022-09-16T10:56:00;99888.84;;;18.08;47.18
16255;BME280;8235;52.198;9.904;2022-09-16T10:58:27;99886.47;;;18.05;46.89
16255;BME280;8235;52.198;9.904;2022-09-16T11:01:03;99880.19;;;17.96;46.36
16255;BME280;8235;52.198;9.904;2022-09-16T11:03:59;99877.81;;;17.85;46.49
16255;BME280;8235;52.198;9.904;2022-09-16T11:06:42;99879.13;;;17.81;46.37
16255;BME280;8235;52.198;9.904;2022-09-16T11:09:14;99878.44;;;17.79;45.42
16255;BME280;8235;52.198;9.904;2022-09-16T11:11:54;99879.94;;;17.74;44.30
16255;BME280;8235;52.198;9.904;2022-09-16T11:14:34;99871.34;;;17.70;44.25
16255;BME280;8235;52.198;9.904;2022-09-16T11:17:16;99884.31;;;17.75;44.32
16255;BME280;8235;52.198;9.904;2022-09-16T11:20:02;99867.66;;;17.71;43.45
16255;BME280;8235;52.198;9.904;2022-09-16T11:22:37;99866.66;;;17.72;43.46
16255;BME280;8235;52.198;9.904;2022-09-16T11:25:28;99866.13;;;17.77;43.70
16255;BME280;8235;52.198;9.904;2022-09-16T11:28:14;99865.97;;;17.78;42.93
16255;BME280;8235;52.198;9.904;2022-09-16T11:30:50;99867.00;;;17.77;43.26
16255;BME280;8235;52.198;9.904;2022-09-16T11:33:25;99855.38;;;17.77;43.60
16255;BME280;8235;52.198;9.904;2022-09-16T11:36:13;99871.22;;;17.80;43.86
16255;BME280;8235;52.198;9.904;2022-09-16T11:38:48;99854.03;;;17.81;43.37
16255;BME280;8235;52.198;9.904;2022-09-16T11:41:23;99852.19;;;17.81;43.53
16255;BME280;8235;52.198;9.904;2022-09-16T11:44:15;99841.47;;;17.89;43.82
16255;BME280;8235;52.198;9.904;2022-09-16T11:46:51;99851.41;;;17.97;44.06
16255;BME280;8235;52.198;9.904;2022-09-16T11:49:47;99838.81;;;18.06;43.82
16255;BME280;8235;52.198;9.904;2022-09-16T11:52:30;99845.22;;;18.13;43.49
16255;BME280;8235;52.198;9.904;2022-09-16T11:55:13;99847.56;;;18.16;43.24
16255;BME280;8235;52.198;9.904;2022-09-16T11:57:45;99844.72;;;18.17;42.31
16255;BME280;8235;52.198;9.904;2022-09-16T12:00:16;99829.56;;;18.16;41.39
16255;BME280;8235;52.198;9.904;2022-09-16T12:02:48;99826.69;;;18.18;41.46
16255;BME280;8235;52.198;9.904;2022-09-16T12:05:19;99834.81;;;18.26;42.04
16255;BME280;8235;52.198;9.904;2022-09-16T12:07:52;99826.03;;;18.32;41.84
16255;BME280;8235;52.198;9.904;2022-09-16T12:10:24;99834.97;;;18.32;41.68
16255;BME280;8235;52.198;9.904;2022-09-16T12:13:00;99847.94;;;18.29;42.24
16255;BME280;8235;52.198;9.904;2022-09-16T12:15:33;99850.47;;;18.22;43.50
16255;BME280;8235;52.198;9.904;2022-09-16T12:18:07;99854.97;;;18.14;46.50
16255;BME280;8235;52.198;9.904;2022-09-16T12:20:39;99855.09;;;17.96;49.09
16255;BME280;8235;52.198;9.904;2022-09-16T12:23:14;99848.97;;;17.78;50.82
16255;BME280;8235;52.198;9.904;2022-09-16T12:25:45;99850.03;;;17.59;51.81
16255;BME280;8235;52.198;9.904;2022-09-16T12:28:17;99843.56;;;17.44;52.52
16255;BME280;8235;52.198;9.904;2022-09-16T12:30:48;99830.25;;;17.34;53.64
16255;BME280;8235;52.198;9.904;2022-09-16T12:33:21;99836.09;;;17.29;54.05
16255;BME280;8235;52.198;9.904;2022-09-16T12:35:55;99832.72;;;17.27;53.82
16255;BME280;8235;52.198;9.904;2022-09-16T12:38:24;99823.97;;;17.25;53.61
16255;BME280;8235;52.198;9.904;2022-09-16T12:41:10;99830.19;;;17.26;53.06
16255;BME280;8235;52.198;9.904;2022-09-16T12:44:03;99837.59;;;17.24;51.83
16255;BME280;8235;52.198;9.904;2022-09-16T12:46:45;99834.19;;;17.22;51.31
16255;BME280;8235;52.198;9.904;2022-09-16T12:52:25;99830.09;;;17.10;49.86
16255;BME280;8235;52.198;9.904;2022-09-16T12:55:43;99828.56;;;17.07;50.22
16255;BME280;8235;52.198;9.904;2022-09-16T12:58:45;99827.56;;;17.08;49.75
16255;BME280;8235;52.198;9.904;2022-09-16T13:01:18;99836.50;;;17.09;49.04
16255;BME280;8235;52.198;9.904;2022-09-16T13:03:50;99826.72;;;17.08;48.18
16255;BME280;8235;52.198;9.904;2022-09-16T13:06:23;99814.44;;;17.05;46.92
16255;BME280;8235;52.198;9.904;2022-09-16T13:08:51;99824.50;;;17.03;46.08
16255;BME280;8235;52.198;9.904;2022-09-16T13:11:21;99826.19;;;17.04;45.61
16255;BME280;8235;52.198;9.904;2022-09-16T13:13:50;99816.81;;;17.08;45.41
16255;BME280;8235;52.198;9.904;2022-09-16T13:16:28;99821.56;;;17.14;45.53
16255;BME280;8235;52.198;9.904;2022-09-16T13:19:14;99809.97;;;17.14;44.41
16255;BME280;8235;52.198;9.904;2022-09-16T13:21:44;99811.19;;;17.19;44.62
16255;BME280;8235;52.198;9.904;2022-09-16T13:24:22;99815.91;;;17.25;44.18
16255;BME280;8235;52.198;9.904;2022-09-16T13:26:51;99824.19;;;17.32;44.80
16255;BME280;8235;52.198;9.904;2022-09-16T13:29:28;99830.28;;;17.42;45.65
16255;BME280;8235;52.198;9.904;2022-09-16T13:31:54;99842.25;;;17.48;45.59
16255;BME280;8235;52.198;9.904;2022-09-16T13:34:21;99854.72;;;17.49;45.36
16255;BME280;8235;52.198;9.904;2022-09-16T13:36:48;99842.94;;;17.50;45.91
16255;BME280;8235;52.198;9.904;2022-09-16T13:39:28;99851.19;;;17.48;46.66